UGSB

Details ICAO UGSB (BUS)
Name BATUMI
Region Georgia
Timezone Asia/Tbilisi (UTC+4.0)
Plans Departing 130
Arriving 145
Stats Elevation 105 ft / 32 m (AMSL)
Location 41.609700° 41.600200°
Runways 1
Magnetic Variation 6.619° E
Sunrise 2018-10-23 03:35:31 UTC / 2018-10-23 07:35:31 Local
Sunset 2018-10-23 14:22:43 UTC / 2018-10-23 18:22:43 Local
Advertisement - Login to hide

Runways

ID Width Length Bearing (true/mag) Surface Threshold Overrun Markings Lighting
13 148 ft / 45 m 8,210 ft / 2,502 m 130.99° / 124.37° ASPHALT 0 ft / 0 m 0 ft / 0 m PREC-APP CENTERLINE EDGE THRESHOLD ALSF-II TDZ REIL-OMNI
31 148 ft / 45 m 8,210 ft / 2,502 m 311.01° / 304.39° ASPHALT 0 ft / 0 m 0 ft / 0 m PREC-APP CENTERLINE EDGE THRESHOLD ALSF-II TDZ REIL-OMNI

Approach Navaids

Runway Type Ident Frequency Range Bearing (true/mag) Slope Elevation
13 LOC-ILS ILU 110.30 MHz 18 nm / 33 km 130.94° / 124.32° - 121 ft / 37 m (AMSL)
13 GS ILU 110.30 MHz 10 nm / 19 km 131.63° / 125.01° 2.50° 127 ft / 39 m (AMSL)

Map

Weather


0- 5 10 15 20 25 30 35+ Temperature / °C

Clouds and Precipitation
Forecast for 2018-10-23 06:00 UTC. Updated 2 hours ago

Ground ~20,000 ft ~40,000 ft Winds

METAR

UGSB 230530Z 14013KT 9999 BKN120 16/12 Q1019 NOSIG

TAF

TAF AMD UGSB 230346Z 2303/2324 13013KT 9999 SCT070 TX20/2311Z TN15/2304Z BECMG 2306/2308 33008KT BECMG 2315/2317 13012KT

Frequencies

Tower 118.60 MHz
Warning: Do not use this data for real-world aviation or navigation. No guarantee of current accuracy is given.